createdAt,value
2023-04-08T00:02:26.990Z,99543.19
2023-04-08T00:05:11.955Z,99547.47
2023-04-08T00:07:56.991Z,99548.09
2023-04-08T00:10:42.059Z,99540.63
2023-04-08T00:13:27.151Z,99534.06
2023-04-08T00:16:12.167Z,99536.91
2023-04-08T00:18:56.685Z,99529.56
2023-04-08T00:21:41.807Z,99528.25
2023-04-08T00:24:26.458Z,99531.41
2023-04-08T00:27:11.100Z,99540.03
2023-04-08T00:29:56.825Z,99526.66
2023-04-08T00:32:41.445Z,99536.50
2023-04-08T00:35:26.663Z,99532.69
2023-04-08T00:38:11.664Z,99532.97
2023-04-08T00:40:57.821Z,99534.66
2023-04-08T00:43:42.487Z,99526.78
2023-04-08T00:46:27.949Z,99537.09
2023-04-08T00:49:13.067Z,99539.25
2023-04-08T00:51:59.945Z,99539.16
2023-04-08T00:54:44.886Z,99535.56
2023-04-08T00:57:29.617Z,99540.94
2023-04-08T01:00:15.583Z,99537.09
2023-04-08T01:03:18.259Z,99542.19
2023-04-08T01:06:15.464Z,99535.66
2023-04-08T01:09:04.682Z,99537.44
2023-04-08T01:11:51.262Z,99534.56
2023-04-08T01:14:41.680Z,99532.97
2023-04-08T01:17:28.433Z,99533.22
2023-04-08T01:20:14.465Z,99534.63
2023-04-08T01:23:05.256Z,99543.06
2023-04-08T01:25:55.148Z,99544.81
2023-04-08T01:28:43.309Z,99540.53
2023-04-08T01:31:29.903Z,99542.91
2023-04-08T01:34:18.197Z,99537.00
2023-04-08T01:37:05.818Z,99541.13
2023-04-08T01:39:52.141Z,99544.47
2023-04-08T01:42:38.114Z,99539.53
2023-04-08T01:45:24.150Z,99539.38
2023-04-08T01:48:10.302Z,99534.81
2023-04-08T01:50:56.644Z,99540.69
2023-04-08T01:53:43.587Z,99529.09
2023-04-08T01:56:32.266Z,99533.41
2023-04-08T01:59:18.205Z,99529.47
2023-04-08T02:02:06.669Z,99525.66
2023-04-08T02:04:53.547Z,99529.78
2023-04-08T02:07:38.453Z,99529.97
2023-04-08T02:10:23.332Z,99528.03
2023-04-08T02:13:08.551Z,99525.31
2023-04-08T02:16:01.969Z,99529.28
2023-04-08T02:18:56.439Z,99523.56
2023-04-08T02:21:50.076Z,99528.31
2023-04-08T02:24:36.487Z,99535.78
2023-04-08T02:27:24.284Z,99524.00
2023-04-08T02:30:11.500Z,99529.72
2023-04-08T02:32:57.241Z,99531.47
2023-04-08T02:35:44.405Z,99532.09
2023-04-08T02:38:30.209Z,99526.19
2023-04-08T02:41:16.055Z,99532.88
2023-04-08T02:44:00.734Z,99533.69
2023-04-08T02:46:45.820Z,99528.22
2023-04-08T02:49:30.821Z,99526.66
2023-04-08T02:52:15.762Z,99534.75
2023-04-08T02:55:00.553Z,99541.88
2023-04-08T02:57:47.775Z,99540.53
2023-04-08T03:00:32.604Z,99540.81
2023-04-08T03:03:17.879Z,99540.28
2023-04-08T03:06:02.929Z,99536.59
2023-04-08T03:08:47.944Z,99546.28
2023-04-08T03:11:33.085Z,99546.72
2023-04-08T03:14:17.898Z,99550.22
2023-04-08T03:17:03.007Z,99546.88
2023-04-08T03:19:48.004Z,99544.25
2023-04-08T03:22:33.749Z,99542.66
2023-04-08T03:25:18.383Z,99539.16
2023-04-08T03:28:03.220Z,99536.59
2023-04-08T03:30:48.695Z,99545.66
2023-04-08T03:33:33.396Z,99545.47
2023-04-08T03:36:18.343Z,99540.56
2023-04-08T03:39:03.474Z,99542.31
2023-04-08T03:41:48.210Z,99550.41
2023-04-08T03:44:33.193Z,99550.22
2023-04-08T03:47:18.273Z,99551.81
2023-04-08T03:50:03.914Z,99548.72
2023-04-08T03:52:48.689Z,99552.69
2023-04-08T03:55:33.300Z,99547.41
2023-04-08T03:58:18.512Z,99539.41
2023-04-08T04:01:03.595Z,99537.47
2023-04-08T04:03:48.631Z,99545.91
2023-04-08T04:06:33.308Z,99537.19
2023-04-08T04:09:18.494Z,99538.94
2023-04-08T04:12:03.397Z,99542.16
2023-04-08T04:14:48.370Z,99541.16
2023-04-08T04:17:33.906Z,99543.19
2023-04-08T04:20:19.326Z,99545.38
2023-04-08T04:23:04.163Z,99547.75
2023-04-08T04:25:48.573Z,99547.16
2023-04-08T04:28:33.123Z,99546.16
2023-04-08T04:31:23.270Z,99555.88
2023-04-08T04:34:07.872Z,99548.81
2023-04-08T04:36:52.979Z,99552.78
2023-04-08T04:39:37.578Z,99555.13
2023-04-08T04:42:22.416Z,99547.81
2023-04-08T04:45:07.663Z,99560.13
2023-04-08T04:47:52.501Z,99553.63
2023-04-08T04:50:37.531Z,99559.00
2023-04-08T04:53:22.237Z,99559.44
2023-04-08T04:56:07.252Z,99565.59
2023-04-08T04:58:52.291Z,99563.72
2023-04-08T05:01:37.299Z,99567.94
2023-04-08T05:04:21.832Z,99573.47
2023-04-08T05:07:06.512Z,99580.31
2023-04-08T05:09:51.363Z,99575.41
2023-04-08T05:12:38.147Z,99579.16
2023-04-08T05:15:23.028Z,99578.66
2023-04-08T05:18:07.906Z,99582.41
2023-04-08T05:20:52.918Z,99577.16
2023-04-08T05:23:37.451Z,99582.31
2023-04-08T05:26:23.125Z,99581.03
2023-04-08T05:29:07.950Z,99585.78
2023-04-08T05:31:53.312Z,99589.03
2023-04-08T05:34:37.951Z,99577.47
2023-04-08T05:37:22.566Z,99584.56
2023-04-08T05:40:07.705Z,99583.19
2023-04-08T05:42:52.140Z,99588.47
2023-04-08T05:45:36.727Z,99590.19
2023-04-08T05:48:21.334Z,99590.44
2023-04-08T05:51:06.460Z,99583.97
2023-04-08T05:53:51.321Z,99584.41
2023-04-08T05:56:36.188Z,99586.66
2023-04-08T05:59:20.701Z,99582.81
2023-04-08T06:02:05.827Z,99584.28
2023-04-08T06:04:51.010Z,99589.88
2023-04-08T06:07:35.824Z,99590.69
2023-04-08T06:10:21.005Z,99594.31
2023-04-08T06:13:06.130Z,99593.81
2023-04-08T06:15:50.999Z,99584.44
2023-04-08T06:18:35.919Z,99594.66
2023-04-08T06:21:20.970Z,99604.34
2023-04-08T06:24:05.948Z,99591.22
2023-04-08T06:26:52.614Z,99594.31
2023-04-08T06:29:37.471Z,99601.91
2023-04-08T06:32:22.684Z,99603.72
2023-04-08T06:35:08.302Z,99596.75
2023-04-08T06:37:52.981Z,99597.78
2023-04-08T06:40:40.797Z,99596.06
2023-04-08T06:43:25.813Z,99589.81
2023-04-08T06:46:10.888Z,99586.28
2023-04-08T06:48:56.012Z,99583.53
2023-04-08T06:51:41.023Z,99584.38
2023-04-08T06:54:25.587Z,99590.28
2023-04-08T06:57:10.179Z,99590.50
2023-04-08T06:59:55.425Z,99590.69
2023-04-08T07:02:40.439Z,99587.53
2023-04-08T07:05:25.541Z,99590.84
2023-04-08T07:08:11.019Z,99594.38
2023-04-08T07:10:55.622Z,99600.53
2023-04-08T07:13:40.611Z,99594.78
2023-04-08T07:16:25.614Z,99599.88
2023-04-08T07:19:11.289Z,99603.38
2023-04-08T07:21:57.246Z,99603.75
2023-04-08T07:24:45.024Z,99599.72
2023-04-08T07:27:30.183Z,99602.84
2023-04-08T07:30:15.438Z,99609.91
2023-04-08T07:33:01.023Z,99606.47
2023-04-08T07:35:46.360Z,99604.41
2023-04-08T07:38:31.884Z,99613.13
2023-04-08T07:41:16.891Z,99604.97
2023-04-08T07:44:01.631Z,99605.94
2023-04-08T07:46:50.375Z,99605.69
2023-04-08T07:49:36.127Z,99603.38
2023-04-08T07:52:20.959Z,99603.38
2023-04-08T07:55:06.085Z,99599.47
2023-04-08T07:57:51.184Z,99602.25
2023-04-08T08:00:36.278Z,99605.06
2023-04-08T08:03:21.791Z,99607.06
2023-04-08T08:06:06.577Z,99603.88
2023-04-08T08:08:51.360Z,99603.69
2023-04-08T08:11:36.343Z,99605.19
2023-04-08T08:14:21.408Z,99601.88
2023-04-08T08:17:06.554Z,99604.03
2023-04-08T08:19:51.393Z,99605.47
2023-04-08T08:22:47.126Z,99606.09
2023-04-08T08:25:41.377Z,99604.72
2023-04-08T08:28:26.778Z,99604.16
2023-04-08T08:31:11.787Z,99610.06
2023-04-08T08:33:56.361Z,99610.09
2023-04-08T08:36:41.474Z,99609.69
2023-04-08T08:39:26.333Z,99614.22
2023-04-08T08:42:25.434Z,99618.75
2023-04-08T08:45:10.387Z,99609.88
2023-04-08T08:47:56.934Z,99622.72
2023-04-08T08:50:41.716Z,99603.41
2023-04-08T08:53:30.772Z,99613.69
2023-04-08T08:56:18.301Z,99622.78
2023-04-08T08:59:04.246Z,99624.56
2023-04-08T09:01:48.852Z,99616.69
2023-04-08T09:04:33.981Z,99625.38
2023-04-08T09:07:25.397Z,99620.06
2023-04-08T09:10:10.058Z,99617.72
2023-04-08T09:12:55.872Z,99612.19
2023-04-08T09:16:04.909Z,99625.78
2023-04-08T09:18:49.633Z,99622.03
2023-04-08T09:21:34.998Z,99621.03
2023-04-08T09:24:30.541Z,99626.78
2023-04-08T09:27:15.382Z,99634.47
2023-04-08T09:30:13.930Z,99629.53
2023-04-08T09:32:59.093Z,99623.03
2023-04-08T09:35:46.104Z,99632.13
2023-04-08T09:38:30.911Z,99634.47
2023-04-08T09:41:17.399Z,99630.34
2023-04-08T09:44:09.588Z,99627.16
2023-04-08T09:47:18.485Z,99621.66
2023-04-08T09:50:08.498Z,99625.00
2023-04-08T09:53:00.073Z,99621.41
2023-04-08T09:55:49.803Z,99616.84
2023-04-08T09:58:42.210Z,99620.00
2023-04-08T10:01:52.015Z,99624.72
2023-04-08T10:04:41.167Z,99616.34
2023-04-08T10:07:26.178Z,99611.97
2023-04-08T10:10:11.194Z,99624.03
2023-04-08T10:12:55.828Z,99615.19
2023-04-08T10:15:42.537Z,99622.09
2023-04-08T10:18:31.464Z,99624.09
2023-04-08T10:21:39.368Z,99617.34
2023-04-08T10:24:25.283Z,99626.84
2023-04-08T10:27:40.057Z,99622.13
2023-04-08T10:30:27.710Z,99625.28
2023-04-08T10:33:15.559Z,99617.00
2023-04-08T10:36:06.458Z,99623.06
2023-04-08T10:38:51.524Z,99620.09
2023-04-08T10:41:45.247Z,99624.19
2023-04-08T10:44:29.982Z,99617.06
2023-04-08T10:47:14.769Z,99609.91
2023-04-08T10:50:00.347Z,99612.47
2023-04-08T10:52:50.264Z,99615.69
2023-04-08T10:55:34.987Z,99617.53
2023-04-08T10:58:20.478Z,99615.19
2023-04-08T11:01:07.021Z,99621.13
2023-04-08T11:03:52.654Z,99620.56
2023-04-08T11:06:37.746Z,99618.00
2023-04-08T11:09:22.868Z,99613.91
2023-04-08T11:12:07.852Z,99614.50
2023-04-08T11:14:53.313Z,99621.59
2023-04-08T11:17:38.501Z,99620.63
2023-04-08T11:20:24.377Z,99616.31
2023-04-08T11:23:13.681Z,99612.19
2023-04-08T11:25:58.533Z,99617.13
2023-04-08T11:28:44.844Z,99612.56
2023-04-08T11:31:31.438Z,99615.09
2023-04-08T11:34:24.495Z,99613.94
2023-04-08T11:37:09.323Z,99616.28
2023-04-08T11:39:56.504Z,99615.28
2023-04-08T11:42:41.164Z,99615.47
2023-04-08T11:45:27.798Z,99613.31
2023-04-08T11:48:14.472Z,99614.91
2023-04-08T11:51:04.401Z,99615.88
2023-04-08T11:53:52.226Z,99619.25
2023-04-08T11:56:46.353Z,99611.16
2023-04-08T11:59:31.213Z,99608.78
2023-04-08T12:02:16.551Z,99608.59
2023-04-08T12:05:02.105Z,99603.47
2023-04-08T12:07:46.982Z,99604.25
2023-04-08T12:10:32.199Z,99603.28
2023-04-08T12:13:17.144Z,99596.97
2023-04-08T12:16:01.810Z,99596.75
2023-04-08T12:18:46.540Z,99599.28
2023-04-08T12:21:31.996Z,99590.41
2023-04-08T12:24:16.857Z,99592.78
2023-04-08T12:27:02.672Z,99589.63
2023-04-08T12:29:49.244Z,99588.84
2023-04-08T12:32:34.157Z,99585.09
2023-04-08T12:35:19.051Z,99593.97
2023-04-08T12:38:03.942Z,99594.59
2023-04-08T12:40:50.186Z,99592.19
2023-04-08T12:43:34.865Z,99587.06
2023-04-08T12:46:20.142Z,99585.88
2023-04-08T12:49:05.853Z,99589.41
2023-04-08T12:51:51.637Z,99584.88
2023-04-08T12:54:36.284Z,99583.88
2023-04-08T12:57:21.289Z,99581.09
2023-04-08T13:00:06.957Z,99574.34
2023-04-08T13:02:51.978Z,99570.19
2023-04-08T13:05:43.352Z,99570.94
2023-04-08T13:08:28.824Z,99570.72
2023-04-08T13:11:13.561Z,99570.88
2023-04-08T13:13:58.459Z,99565.91
2023-04-08T13:16:43.501Z,99574.81
2023-04-08T13:19:27.813Z,99571.44
2023-04-08T13:22:13.608Z,99563.09
2023-04-08T13:24:59.005Z,99562.84
2023-04-08T13:27:45.767Z,99563.16
2023-04-08T13:30:30.631Z,99565.00
2023-04-08T13:33:15.607Z,99563.75
2023-04-08T13:36:00.308Z,99557.28
2023-04-08T13:38:45.452Z,99558.44
2023-04-08T13:41:29.931Z,99558.75
2023-04-08T13:44:16.415Z,99547.84
2023-04-08T13:47:01.319Z,99552.59
2023-04-08T13:49:46.074Z,99546.75
2023-04-08T13:52:31.085Z,99546.59
2023-04-08T13:55:16.131Z,99552.56
2023-04-08T13:58:02.399Z,99546.94
2023-04-08T14:00:48.582Z,99549.94
2023-04-08T14:03:33.487Z,99544.59
2023-04-08T14:06:18.475Z,99542.66
2023-04-08T14:09:03.090Z,99545.81
2023-04-08T14:11:48.219Z,99539.75
2023-04-08T14:14:33.016Z,99547.72
2023-04-08T14:17:17.438Z,99545.16
2023-04-08T14:20:02.161Z,99539.50
2023-04-08T14:22:47.190Z,99535.13
2023-04-08T14:25:32.284Z,99534.91
2023-04-08T14:28:17.124Z,99545.03
2023-04-08T14:31:03.580Z,99537.06
2023-04-08T14:33:48.493Z,99534.13
2023-04-08T14:36:33.185Z,99544.13
2023-04-08T14:39:18.085Z,99533.81
2023-04-08T14:42:03.357Z,99534.69
2023-04-08T14:44:47.901Z,99544.09
2023-04-08T14:47:32.491Z,99539.50
2023-04-08T14:50:18.218Z,99543.38
2023-04-08T14:53:02.888Z,99539.78
2023-04-08T14:55:47.520Z,99540.69
2023-04-08T14:58:32.402Z,99539.81
2023-04-08T15:01:17.071Z,99546.59
2023-04-08T15:04:02.184Z,99549.06
2023-04-08T15:06:47.188Z,99553.56
2023-04-08T15:09:31.985Z,99552.38
2023-04-08T15:12:16.650Z,99553.72
2023-04-08T15:15:02.307Z,99551.56
2023-04-08T15:17:47.120Z,99559.84
2023-04-08T15:20:32.005Z,99559.78
2023-04-08T15:23:17.383Z,99569.72
2023-04-08T15:26:02.322Z,99561.28
2023-04-08T15:28:47.094Z,99569.22
2023-04-08T15:31:32.225Z,99571.81
2023-04-08T15:34:16.510Z,99571.41
2023-04-08T15:37:01.623Z,99566.66
2023-04-08T15:39:46.321Z,99562.72
2023-04-08T15:42:31.325Z,99567.41
2023-04-08T15:45:15.861Z,99566.84
2023-04-08T15:48:00.938Z,99563.13
2023-04-08T15:50:46.025Z,99563.13
2023-04-08T15:53:31.399Z,99560.41
2023-04-08T15:56:17.314Z,99564.03
2023-04-08T15:59:02.405Z,99567.41
2023-04-08T16:01:47.016Z,99571.38
2023-04-08T16:04:32.054Z,99571.22
2023-04-08T16:07:17.709Z,99569.28
2023-04-08T16:10:02.722Z,99563.75
2023-04-08T16:12:47.298Z,99560.84
2023-04-08T16:15:33.528Z,99557.09
2023-04-08T16:18:18.330Z,99563.84
2023-04-08T16:21:06.052Z,99559.31
2023-04-08T16:23:50.983Z,99556.81
2023-04-08T16:26:35.848Z,99565.56
2023-04-08T16:29:22.240Z,99563.00
2023-04-08T16:32:08.245Z,99559.47
2023-04-08T16:34:53.136Z,99560.28
2023-04-08T16:37:37.591Z,99566.41
2023-04-08T16:40:22.269Z,99555.00
2023-04-08T16:43:07.346Z,99566.28
2023-04-08T16:45:52.681Z,99567.28
2023-04-08T16:48:38.529Z,99581.72
2023-04-08T16:51:23.220Z,99582.72
2023-04-08T16:54:07.957Z,99584.53
2023-04-08T16:56:52.854Z,99588.09
2023-04-08T16:59:37.425Z,99589.09
2023-04-08T17:02:22.609Z,99592.03
2023-04-08T17:05:07.737Z,99585.53
2023-04-08T17:07:53.106Z,99590.28
2023-04-08T17:10:37.808Z,99592.03
2023-04-08T17:13:22.750Z,99599.91
2023-04-08T17:16:15.141Z,99601.09
2023-04-08T17:19:00.003Z,99602.84
2023-04-08T17:21:45.669Z,99605.81
2023-04-08T17:24:30.812Z,99615.06
2023-04-08T17:27:15.691Z,99623.97
2023-04-08T17:30:00.847Z,99613.53
2023-04-08T17:32:45.626Z,99614.53
2023-04-08T17:35:30.962Z,99611.16
2023-04-08T17:38:15.834Z,99621.44
2023-04-08T17:41:01.076Z,99605.47
2023-04-08T17:43:45.764Z,99611.38
2023-04-08T17:46:32.374Z,99616.31
2023-04-08T17:49:18.043Z,99616.69
2023-04-08T17:52:03.100Z,99610.59
2023-04-08T17:54:48.147Z,99622.44
2023-04-08T17:57:32.891Z,99629.53
2023-04-08T18:00:17.793Z,99636.44
2023-04-08T18:03:02.670Z,99630.13
2023-04-08T18:05:47.339Z,99633.88
2023-04-08T18:08:32.083Z,99632.28
2023-04-08T18:11:17.059Z,99625.38
2023-04-08T18:14:02.074Z,99637.03
2023-04-08T18:16:47.085Z,99638.84
2023-04-08T18:19:32.034Z,99636.66
2023-04-08T18:22:16.899Z,99641.19
2023-04-08T18:25:01.373Z,99644.53
2023-04-08T18:27:46.126Z,99650.84
2023-04-08T18:30:31.232Z,99648.09
2023-04-08T18:33:16.389Z,99650.84
2023-04-08T18:36:14.112Z,99652.63
2023-04-08T18:38:59.657Z,99655.19
2023-04-08T18:41:44.254Z,99652.03
2023-04-08T18:44:29.657Z,99664.88
2023-04-08T18:47:14.351Z,99682.44
2023-04-08T18:49:59.343Z,99684.00
2023-04-08T18:52:44.262Z,99683.03
2023-04-08T18:55:29.713Z,99675.72
2023-04-08T18:58:14.621Z,99681.22
2023-04-08T19:00:59.355Z,99680.06
2023-04-08T19:03:44.595Z,99675.09
2023-04-08T19:06:29.859Z,99671.75
2023-04-08T19:09:15.004Z,99671.16
2023-04-08T19:11:59.923Z,99668.81
2023-04-08T19:14:44.748Z,99666.41
2023-04-08T19:17:30.312Z,99665.63
2023-04-08T19:20:15.102Z,99663.25
2023-04-08T19:23:00.358Z,99667.41
2023-04-08T19:25:46.535Z,99660.31
2023-04-08T19:28:32.662Z,99656.94
2023-04-08T19:31:18.847Z,99653.59
2023-04-08T19:34:03.667Z,99651.63
2023-04-08T19:36:48.709Z,99655.56
2023-04-08T19:39:33.786Z,99656.72
2023-04-08T19:42:18.967Z,99656.91
2023-04-08T19:45:04.633Z,99656.13
2023-04-08T19:47:49.497Z,99650.78
2023-04-08T19:50:38.457Z,99656.28
2023-04-08T19:53:23.642Z,99657.50
2023-04-08T19:56:08.732Z,99656.31
2023-04-08T19:58:53.699Z,99660.69
2023-04-08T20:01:39.974Z,99643.50
2023-04-08T20:04:25.186Z,99643.72
2023-04-08T20:07:10.249Z,99648.63
2023-04-08T20:09:55.056Z,99648.06
2023-04-08T20:12:40.852Z,99642.94
2023-04-08T20:15:25.953Z,99647.66
2023-04-08T20:18:11.567Z,99638.81
2023-04-08T20:20:56.238Z,99642.94
2023-04-08T20:23:43.776Z,99636.63
2023-04-08T20:26:28.560Z,99645.09
2023-04-08T20:29:13.431Z,99637.41
2023-04-08T20:31:59.408Z,99638.59
2023-04-08T20:34:44.429Z,99637.22
2023-04-08T20:37:29.375Z,99649.06
2023-04-08T20:40:15.844Z,99631.13
2023-04-08T20:43:01.933Z,99639.41
2023-04-08T20:45:46.835Z,99644.69
2023-04-08T20:48:32.609Z,99637.41
2023-04-08T20:51:17.343Z,99644.69
2023-04-08T20:54:02.256Z,99639.56
2023-04-08T20:56:47.200Z,99647.66
2023-04-08T20:59:32.563Z,99646.28
2023-04-08T21:02:20.188Z,99643.13
2023-04-08T21:05:05.402Z,99642.13
2023-04-08T21:07:50.264Z,99647.25
2023-04-08T21:10:35.287Z,99650.63
2023-04-08T21:13:20.282Z,99646.09
2023-04-08T21:16:06.015Z,99651.84
2023-04-08T21:18:50.689Z,99650.25
2023-04-08T21:21:35.620Z,99660.13
2023-04-08T21:24:21.026Z,99653.59
2023-04-08T21:27:05.730Z,99657.34
2023-04-08T21:29:51.964Z,99653.41
2023-04-08T21:32:36.684Z,99653.22
2023-04-08T21:35:23.249Z,99650.03
2023-04-08T21:38:07.824Z,99655.38
2023-04-08T21:40:52.804Z,99661.88
2023-04-08T21:43:37.903Z,99654.41
2023-04-08T21:46:22.857Z,99651.63
2023-04-08T21:49:07.728Z,99651.03
2023-04-08T21:51:52.483Z,99657.34
2023-04-08T21:54:37.690Z,99654.19
2023-04-08T21:57:22.509Z,99656.13
2023-04-08T22:00:13.124Z,99648.66
2023-04-08T22:03:01.762Z,99648.44
2023-04-08T22:05:46.602Z,99648.44
2023-04-08T22:08:31.984Z,99648.44
2023-04-08T22:11:16.987Z,99641.34
2023-04-08T22:14:01.754Z,99643.13
2023-04-08T22:16:46.769Z,99640.56
2023-04-08T22:19:31.631Z,99642.31
2023-04-08T22:22:16.804Z,99644.13
2023-04-08T22:25:01.941Z,99642.31
2023-04-08T22:27:46.800Z,99642.31
2023-04-08T22:30:31.792Z,99644.91
2023-04-08T22:33:16.743Z,99646.69
2023-04-08T22:36:02.056Z,99650.84
2023-04-08T22:38:46.820Z,99644.31
2023-04-08T22:41:31.322Z,99649.44
2023-04-08T22:44:15.885Z,99647.06
2023-04-08T22:47:00.513Z,99643.53
2023-04-08T22:49:45.448Z,99651.22
2023-04-08T22:52:30.352Z,99648.84
2023-04-08T22:55:15.340Z,99651.41
2023-04-08T22:58:00.330Z,99650.63
2023-04-08T23:00:45.141Z,99645.69
2023-04-08T23:03:29.849Z,99655.56
2023-04-08T23:06:15.341Z,99645.28
2023-04-08T23:09:00.414Z,99638.56
2023-04-08T23:11:45.133Z,99638.00
2023-04-08T23:14:29.726Z,99637.03
2023-04-08T23:17:14.274Z,99642.94
2023-04-08T23:19:58.746Z,99638.41
2023-04-08T23:22:43.370Z,99644.13
2023-04-08T23:25:29.091Z,99640.56
2023-04-08T23:28:13.601Z,99638.81
2023-04-08T23:30:58.603Z,99635.44
2023-04-08T23:33:43.670Z,99636.25
2023-04-08T23:36:28.524Z,99634.44
2023-04-08T23:39:13.001Z,99621.63
2023-04-08T23:41:57.691Z,99625.38
2023-04-08T23:44:42.820Z,99626.16
2023-04-08T23:47:28.402Z,99623.03
2023-04-08T23:50:13.279Z,99616.88
2023-04-08T23:52:58.156Z,99614.94
2023-04-08T23:55:43.166Z,99616.50
2023-04-08T23:58:28.001Z,99616.50
